sensor_id;sensor_type;location;lat;lon;timestamp;P1;durP1;ratioP1;P2;durP2;ratioP2
56321;SDS011;42227;6.376;-10.782;2023-04-25T00:01:16;26.55;;;12.57;;
56321;SDS011;42227;6.376;-10.782;2023-04-25T00:03:44;21.80;;;14.93;;
56321;SDS011;42227;6.376;-10.782;2023-04-25T00:06:13;45.97;;;20.63;;
56321;SDS011;42227;6.376;-10.782;2023-04-25T00:08:42;42.42;;;24.77;;
56321;SDS011;42227;6.376;-10.782;2023-04-25T00:11:10;54.65;;;28.35;;
56321;SDS011;42227;6.376;-10.782;2023-04-25T00:13:39;29.00;;;19.52;;
56321;SDS011;42227;6.376;-10.782;2023-04-25T00:16:08;32.95;;;16.98;;
56321;SDS011;42227;6.376;-10.782;2023-04-25T00:18:36;25.80;;;12.65;;
56321;SDS011;42227;6.376;-10.782;2023-04-25T00:21:04;15.73;;;10.43;;
56321;SDS011;42227;6.376;-10.782;2023-04-25T00:23:32;15.32;;;9.20;;
56321;SDS011;42227;6.376;-10.782;2023-04-25T00:26:01;14.90;;;9.27;;
56321;SDS011;42227;6.376;-10.782;2023-04-25T00:28:29;14.60;;;9.68;;
56321;SDS011;42227;6.376;-10.782;2023-04-25T00:30:58;15.88;;;9.30;;
56321;SDS011;42227;6.376;-10.782;2023-04-25T00:33:26;16.75;;;9.15;;
56321;SDS011;42227;6.376;-10.782;2023-04-25T00:35:55;19.15;;;10.40;;
56321;SDS011;42227;6.376;-10.782;2023-04-25T00:38:23;16.38;;;8.75;;
56321;SDS011;42227;6.376;-10.782;2023-04-25T00:40:51;19.27;;;9.05;;
56321;SDS011;42227;6.376;-10.782;2023-04-25T00:43:19;11.88;;;8.07;;
56321;SDS011;42227;6.376;-10.782;2023-04-25T00:45:48;20.08;;;8.35;;
56321;SDS011;42227;6.376;-10.782;2023-04-25T00:48:18;17.88;;;9.43;;
56321;SDS011;42227;6.376;-10.782;2023-04-25T00:50:56;21.95;;;9.82;;
56321;SDS011;42227;6.376;-10.782;2023-04-25T00:53:26;19.30;;;10.00;;
56321;SDS011;42227;6.376;-10.782;2023-04-25T00:55:55;14.15;;;7.90;;
56321;SDS011;42227;6.376;-10.782;2023-04-25T00:58:24;18.73;;;9.45;;
56321;SDS011;42227;6.376;-10.782;2023-04-25T01:00:52;16.27;;;9.30;;
56321;SDS011;42227;6.376;-10.782;2023-04-25T01:03:20;19.38;;;11.60;;
56321;SDS011;42227;6.376;-10.782;2023-04-25T01:05:49;22.75;;;10.15;;
56321;SDS011;42227;6.376;-10.782;2023-04-25T01:08:18;23.90;;;15.00;;
56321;SDS011;42227;6.376;-10.782;2023-04-25T01:10:48;81.82;;;47.53;;
56321;SDS011;42227;6.376;-10.782;2023-04-25T01:13:16;81.47;;;45.15;;
56321;SDS011;42227;6.376;-10.782;2023-04-25T01:15:45;44.90;;;23.10;;
56321;SDS011;42227;6.376;-10.782;2023-04-25T01:18:13;21.20;;;11.05;;
56321;SDS011;42227;6.376;-10.782;2023-04-25T01:20:42;16.73;;;9.50;;
56321;SDS011;42227;6.376;-10.782;2023-04-25T01:23:11;14.90;;;9.23;;
56321;SDS011;42227;6.376;-10.782;2023-04-25T01:25:41;17.70;;;10.18;;
56321;SDS011;42227;6.376;-10.782;2023-04-25T01:28:09;19.90;;;10.80;;
56321;SDS011;42227;6.376;-10.782;2023-04-25T01:30:38;21.70;;;10.40;;
56321;SDS011;42227;6.376;-10.782;2023-04-25T01:33:07;18.02;;;8.30;;
56321;SDS011;42227;6.376;-10.782;2023-04-25T01:35:36;18.02;;;9.05;;
56321;SDS011;42227;6.376;-10.782;2023-04-25T01:38:04;16.17;;;9.35;;
56321;SDS011;42227;6.376;-10.782;2023-04-25T01:40:33;22.52;;;11.50;;
56321;SDS011;42227;6.376;-10.782;2023-04-25T01:43:01;38.70;;;25.33;;
56321;SDS011;42227;6.376;-10.782;2023-04-25T01:45:30;40.70;;;20.45;;
56321;SDS011;42227;6.376;-10.782;2023-04-25T01:47:58;22.63;;;15.35;;
56321;SDS011;42227;6.376;-10.782;2023-04-25T01:50:27;19.85;;;11.35;;
56321;SDS011;42227;6.376;-10.782;2023-04-25T01:52:55;32.97;;;21.50;;
56321;SDS011;42227;6.376;-10.782;2023-04-25T01:55:24;36.97;;;19.38;;
56321;SDS011;42227;6.376;-10.782;2023-04-25T01:58:01;20.95;;;14.52;;
56321;SDS011;42227;6.376;-10.782;2023-04-25T02:00:50;20.95;;;12.75;;
56321;SDS011;42227;6.376;-10.782;2023-04-25T02:03:19;19.98;;;13.48;;
56321;SDS011;42227;6.376;-10.782;2023-04-25T02:05:47;24.05;;;16.95;;
56321;SDS011;42227;6.376;-10.782;2023-04-25T02:08:17;28.05;;;15.30;;
56321;SDS011;42227;6.376;-10.782;2023-04-25T02:10:45;25.05;;;14.52;;
56321;SDS011;42227;6.376;-10.782;2023-04-25T02:16:10;24.65;;;15.38;;
56321;SDS011;42227;6.376;-10.782;2023-04-25T02:18:38;34.17;;;16.23;;
56321;SDS011;42227;6.376;-10.782;2023-04-25T02:21:06;19.23;;;13.27;;
56321;SDS011;42227;6.376;-10.782;2023-04-25T02:23:35;20.25;;;14.45;;
56321;SDS011;42227;6.376;-10.782;2023-04-25T02:26:03;23.92;;;15.10;;
56321;SDS011;42227;6.376;-10.782;2023-04-25T02:28:31;24.83;;;13.48;;
56321;SDS011;42227;6.376;-10.782;2023-04-25T02:31:03;18.95;;;13.13;;
56321;SDS011;42227;6.376;-10.782;2023-04-25T02:33:32;24.65;;;14.13;;
56321;SDS011;42227;6.376;-10.782;2023-04-25T02:36:00;32.13;;;17.00;;
56321;SDS011;42227;6.376;-10.782;2023-04-25T02:38:28;23.25;;;14.35;;
56321;SDS011;42227;6.376;-10.782;2023-04-25T02:40:56;26.88;;;15.50;;
56321;SDS011;42227;6.376;-10.782;2023-04-25T02:43:25;27.45;;;16.98;;
56321;SDS011;42227;6.376;-10.782;2023-04-25T02:45:53;21.95;;;13.45;;
56321;SDS011;42227;6.376;-10.782;2023-04-25T02:48:21;28.02;;;14.90;;
56321;SDS011;42227;6.376;-10.782;2023-04-25T02:50:50;21.15;;;14.88;;
56321;SDS011;42227;6.376;-10.782;2023-04-25T02:53:18;28.65;;;13.70;;
56321;SDS011;42227;6.376;-10.782;2023-04-25T02:55:49;35.55;;;20.42;;
56321;SDS011;42227;6.376;-10.782;2023-04-25T02:58:17;40.60;;;20.95;;
56321;SDS011;42227;6.376;-10.782;2023-04-25T03:00:49;29.23;;;15.77;;
56321;SDS011;42227;6.376;-10.782;2023-04-25T03:03:17;21.27;;;12.63;;
56321;SDS011;42227;6.376;-10.782;2023-04-25T03:05:45;20.13;;;12.30;;
56321;SDS011;42227;6.376;-10.782;2023-04-25T03:08:18;16.58;;;10.15;;
56321;SDS011;42227;6.376;-10.782;2023-04-25T03:10:46;17.67;;;10.05;;
56321;SDS011;42227;6.376;-10.782;2023-04-25T03:13:15;22.48;;;10.60;;
56321;SDS011;42227;6.376;-10.782;2023-04-25T03:15:43;23.13;;;10.90;;
56321;SDS011;42227;6.376;-10.782;2023-04-25T03:18:12;22.05;;;11.10;;
56321;SDS011;42227;6.376;-10.782;2023-04-25T03:20:40;16.05;;;9.05;;
56321;SDS011;42227;6.376;-10.782;2023-04-25T03:23:08;16.50;;;8.60;;
56321;SDS011;42227;6.376;-10.782;2023-04-25T03:25:39;15.32;;;8.85;;
56321;SDS011;42227;6.376;-10.782;2023-04-25T03:28:07;30.95;;;13.02;;
56321;SDS011;42227;6.376;-10.782;2023-04-25T03:30:36;13.35;;;8.95;;
56321;SDS011;42227;6.376;-10.782;2023-04-25T03:33:05;21.77;;;11.18;;
56321;SDS011;42227;6.376;-10.782;2023-04-25T03:35:33;24.23;;;11.13;;
56321;SDS011;42227;6.376;-10.782;2023-04-25T03:38:01;24.92;;;12.23;;
56321;SDS011;42227;6.376;-10.782;2023-04-25T03:40:34;21.05;;;13.25;;
56321;SDS011;42227;6.376;-10.782;2023-04-25T03:43:25;28.33;;;14.82;;
56321;SDS011;42227;6.376;-10.782;2023-04-25T03:46:00;18.80;;;12.07;;
56321;SDS011;42227;6.376;-10.782;2023-04-25T03:48:29;20.35;;;10.27;;
56321;SDS011;42227;6.376;-10.782;2023-04-25T03:50:58;18.50;;;9.60;;
56321;SDS011;42227;6.376;-10.782;2023-04-25T03:53:26;15.65;;;10.60;;
56321;SDS011;42227;6.376;-10.782;2023-04-25T03:56:13;23.13;;;10.43;;
56321;SDS011;42227;6.376;-10.782;2023-04-25T03:58:43;17.60;;;10.30;;
56321;SDS011;42227;6.376;-10.782;2023-04-25T04:01:14;25.55;;;11.98;;
56321;SDS011;42227;6.376;-10.782;2023-04-25T04:03:42;21.25;;;11.32;;
56321;SDS011;42227;6.376;-10.782;2023-04-25T04:06:11;17.08;;;9.45;;
56321;SDS011;42227;6.376;-10.782;2023-04-25T04:08:42;13.77;;;9.10;;
56321;SDS011;42227;6.376;-10.782;2023-04-25T04:11:11;17.05;;;9.07;;
56321;SDS011;42227;6.376;-10.782;2023-04-25T04:13:39;18.40;;;8.85;;
56321;SDS011;42227;6.376;-10.782;2023-04-25T04:16:08;19.30;;;10.60;;
56321;SDS011;42227;6.376;-10.782;2023-04-25T04:18:37;14.85;;;9.93;;
56321;SDS011;42227;6.376;-10.782;2023-04-25T04:21:05;22.13;;;10.82;;
56321;SDS011;42227;6.376;-10.782;2023-04-25T04:23:36;18.95;;;10.15;;
56321;SDS011;42227;6.376;-10.782;2023-04-25T04:26:07;19.20;;;9.32;;
56321;SDS011;42227;6.376;-10.782;2023-04-25T04:28:43;15.25;;;9.85;;
56321;SDS011;42227;6.376;-10.782;2023-04-25T04:31:21;15.80;;;10.10;;
56321;SDS011;42227;6.376;-10.782;2023-04-25T04:33:50;16.45;;;9.52;;
56321;SDS011;42227;6.376;-10.782;2023-04-25T04:36:19;27.30;;;12.20;;
56321;SDS011;42227;6.376;-10.782;2023-04-25T04:38:48;26.05;;;12.30;;
56321;SDS011;42227;6.376;-10.782;2023-04-25T04:41:28;15.75;;;9.00;;
56321;SDS011;42227;6.376;-10.782;2023-04-25T04:44:07;20.15;;;10.57;;
56321;SDS011;42227;6.376;-10.782;2023-04-25T04:46:45;17.23;;;9.52;;
56321;SDS011;42227;6.376;-10.782;2023-04-25T04:49:33;18.45;;;9.23;;
56321;SDS011;42227;6.376;-10.782;2023-04-25T04:52:07;16.95;;;9.85;;
56321;SDS011;42227;6.376;-10.782;2023-04-25T04:55:01;14.63;;;10.48;;
56321;SDS011;42227;6.376;-10.782;2023-04-25T04:57:49;21.75;;;10.70;;
56321;SDS011;42227;6.376;-10.782;2023-04-25T05:00:38;19.52;;;12.13;;
56321;SDS011;42227;6.376;-10.782;2023-04-25T05:03:29;18.00;;;11.18;;
56321;SDS011;42227;6.376;-10.782;2023-04-25T05:06:21;17.27;;;12.00;;
56321;SDS011;42227;6.376;-10.782;2023-04-25T05:09:07;22.80;;;12.23;;
56321;SDS011;42227;6.376;-10.782;2023-04-25T05:12:01;16.73;;;11.05;;
56321;SDS011;42227;6.376;-10.782;2023-04-25T05:14:47;13.82;;;8.95;;
56321;SDS011;42227;6.376;-10.782;2023-04-25T05:17:36;14.48;;;9.02;;
56321;SDS011;42227;6.376;-10.782;2023-04-25T05:20:17;16.52;;;10.07;;
56321;SDS011;42227;6.376;-10.782;2023-04-25T05:23:03;16.42;;;9.15;;
56321;SDS011;42227;6.376;-10.782;2023-04-25T05:25:41;16.45;;;8.73;;
56321;SDS011;42227;6.376;-10.782;2023-04-25T05:28:19;14.68;;;9.93;;
56321;SDS011;42227;6.376;-10.782;2023-04-25T05:31:23;17.20;;;10.15;;
56321;SDS011;42227;6.376;-10.782;2023-04-25T05:33:58;19.08;;;10.95;;
56321;SDS011;42227;6.376;-10.782;2023-04-25T05:36:38;19.98;;;11.35;;
56321;SDS011;42227;6.376;-10.782;2023-04-25T05:39:06;35.95;;;21.30;;
56321;SDS011;42227;6.376;-10.782;2023-04-25T05:41:54;28.15;;;19.95;;
56321;SDS011;42227;6.376;-10.782;2023-04-25T05:44:41;31.38;;;20.48;;
56321;SDS011;42227;6.376;-10.782;2023-04-25T05:47:25;33.22;;;19.88;;
56321;SDS011;42227;6.376;-10.782;2023-04-25T05:52:48;25.42;;;15.13;;
56321;SDS011;42227;6.376;-10.782;2023-04-25T05:55:27;38.67;;;16.35;;
56321;SDS011;42227;6.376;-10.782;2023-04-25T05:57:57;30.67;;;17.42;;
56321;SDS011;42227;6.376;-10.782;2023-04-25T06:00:26;23.95;;;15.70;;
56321;SDS011;42227;6.376;-10.782;2023-04-25T06:02:55;27.73;;;16.50;;
56321;SDS011;42227;6.376;-10.782;2023-04-25T06:05:23;34.40;;;13.98;;
56321;SDS011;42227;6.376;-10.782;2023-04-25T06:07:52;20.42;;;12.98;;
56321;SDS011;42227;6.376;-10.782;2023-04-25T06:10:20;23.73;;;14.13;;
56321;SDS011;42227;6.376;-10.782;2023-04-25T06:12:49;27.17;;;14.00;;
56321;SDS011;42227;6.376;-10.782;2023-04-25T06:15:20;26.65;;;14.55;;
56321;SDS011;42227;6.376;-10.782;2023-04-25T06:18:00;20.73;;;13.18;;
56321;SDS011;42227;6.376;-10.782;2023-04-25T06:20:28;31.42;;;13.32;;
56321;SDS011;42227;6.376;-10.782;2023-04-25T06:22:59;22.00;;;11.63;;
56321;SDS011;42227;6.376;-10.782;2023-04-25T06:25:47;25.17;;;12.80;;
56321;SDS011;42227;6.376;-10.782;2023-04-25T06:28:15;16.08;;;10.93;;
56321;SDS011;42227;6.376;-10.782;2023-04-25T06:30:44;21.73;;;11.13;;
56321;SDS011;42227;6.376;-10.782;2023-04-25T06:33:16;27.13;;;12.30;;
56321;SDS011;42227;6.376;-10.782;2023-04-25T06:35:45;15.30;;;12.70;;
56321;SDS011;42227;6.376;-10.782;2023-04-25T06:38:16;17.23;;;11.17;;
56321;SDS011;42227;6.376;-10.782;2023-04-25T06:40:47;25.90;;;11.73;;
56321;SDS011;42227;6.376;-10.782;2023-04-25T06:43:17;19.30;;;10.98;;
56321;SDS011;42227;6.376;-10.782;2023-04-25T06:46:03;16.35;;;9.90;;
56321;SDS011;42227;6.376;-10.782;2023-04-25T06:48:38;18.13;;;11.98;;
56321;SDS011;42227;6.376;-10.782;2023-04-25T06:51:06;17.73;;;13.02;;
56321;SDS011;42227;6.376;-10.782;2023-04-25T06:53:36;19.10;;;10.77;;
56321;SDS011;42227;6.376;-10.782;2023-04-25T06:56:07;22.05;;;11.25;;
56321;SDS011;42227;6.376;-10.782;2023-04-25T06:58:54;27.63;;;12.38;;
56321;SDS011;42227;6.376;-10.782;2023-04-25T07:01:48;21.13;;;12.38;;
56321;SDS011;42227;6.376;-10.782;2023-04-25T07:04:20;18.00;;;10.80;;
56321;SDS011;42227;6.376;-10.782;2023-04-25T07:06:52;24.85;;;11.05;;
56321;SDS011;42227;6.376;-10.782;2023-04-25T07:09:28;21.00;;;10.70;;
56321;SDS011;42227;6.376;-10.782;2023-04-25T07:11:57;22.13;;;11.57;;
56321;SDS011;42227;6.376;-10.782;2023-04-25T07:14:26;15.48;;;10.00;;
56321;SDS011;42227;6.376;-10.782;2023-04-25T07:16:54;24.33;;;13.80;;
56321;SDS011;42227;6.376;-10.782;2023-04-25T07:19:24;25.05;;;12.93;;
56321;SDS011;42227;6.376;-10.782;2023-04-25T07:21:55;27.77;;;13.63;;
56321;SDS011;42227;6.376;-10.782;2023-04-25T07:24:24;17.63;;;11.05;;
56321;SDS011;42227;6.376;-10.782;2023-04-25T07:26:54;20.08;;;11.30;;
56321;SDS011;42227;6.376;-10.782;2023-04-25T07:29:42;15.23;;;9.60;;
56321;SDS011;42227;6.376;-10.782;2023-04-25T07:32:11;17.52;;;10.38;;
56321;SDS011;42227;6.376;-10.782;2023-04-25T07:34:41;19.83;;;11.80;;
56321;SDS011;42227;6.376;-10.782;2023-04-25T07:37:10;17.60;;;11.95;;
56321;SDS011;42227;6.376;-10.782;2023-04-25T07:39:52;20.02;;;12.30;;
56321;SDS011;42227;6.376;-10.782;2023-04-25T07:42:20;17.20;;;10.75;;
56321;SDS011;42227;6.376;-10.782;2023-04-25T07:44:48;17.40;;;10.38;;
56321;SDS011;42227;6.376;-10.782;2023-04-25T07:47:17;19.88;;;8.90;;
56321;SDS011;42227;6.376;-10.782;2023-04-25T07:49:45;17.98;;;8.82;;
56321;SDS011;42227;6.376;-10.782;2023-04-25T07:52:14;12.88;;;9.10;;
56321;SDS011;42227;6.376;-10.782;2023-04-25T07:54:48;11.75;;;7.53;;
56321;SDS011;42227;6.376;-10.782;2023-04-25T07:57:22;14.48;;;8.55;;
56321;SDS011;42227;6.376;-10.782;2023-04-25T07:59:54;23.17;;;9.50;;
56321;SDS011;42227;6.376;-10.782;2023-04-25T08:02:23;11.18;;;8.38;;
56321;SDS011;42227;6.376;-10.782;2023-04-25T08:04:52;12.13;;;9.32;;
56321;SDS011;42227;6.376;-10.782;2023-04-25T08:07:21;15.63;;;10.30;;
56321;SDS011;42227;6.376;-10.782;2023-04-25T08:09:54;11.15;;;7.80;;
56321;SDS011;42227;6.376;-10.782;2023-04-25T08:12:27;11.27;;;8.13;;
56321;SDS011;42227;6.376;-10.782;2023-04-25T08:14:55;11.20;;;6.75;;
56321;SDS011;42227;6.376;-10.782;2023-04-25T08:17:28;15.05;;;9.00;;
56321;SDS011;42227;6.376;-10.782;2023-04-25T08:19:56;13.70;;;7.13;;
56321;SDS011;42227;6.376;-10.782;2023-04-25T08:22:30;11.57;;;7.10;;
56321;SDS011;42227;6.376;-10.782;2023-04-25T08:25:23;11.65;;;8.07;;
56321;SDS011;42227;6.376;-10.782;2023-04-25T08:27:52;12.32;;;8.38;;
56321;SDS011;42227;6.376;-10.782;2023-04-25T08:30:21;14.00;;;8.35;;
56321;SDS011;42227;6.376;-10.782;2023-04-25T08:32:50;14.88;;;8.77;;
56321;SDS011;42227;6.376;-10.782;2023-04-25T08:35:41;13.30;;;7.38;;
56321;SDS011;42227;6.376;-10.782;2023-04-25T08:38:09;22.88;;;10.40;;
56321;SDS011;42227;6.376;-10.782;2023-04-25T08:40:38;13.02;;;8.27;;
56321;SDS011;42227;6.376;-10.782;2023-04-25T08:43:13;10.98;;;7.15;;
56321;SDS011;42227;6.376;-10.782;2023-04-25T08:45:42;11.70;;;8.38;;
56321;SDS011;42227;6.376;-10.782;2023-04-25T08:48:19;9.52;;;7.10;;
56321;SDS011;42227;6.376;-10.782;2023-04-25T08:50:49;17.95;;;7.22;;
56321;SDS011;42227;6.376;-10.782;2023-04-25T08:53:22;11.15;;;8.23;;
56321;SDS011;42227;6.376;-10.782;2023-04-25T08:55:57;20.90;;;8.10;;
56321;SDS011;42227;6.376;-10.782;2023-04-25T08:58:31;10.65;;;7.78;;
56321;SDS011;42227;6.376;-10.782;2023-04-25T09:01:00;15.82;;;9.15;;
56321;SDS011;42227;6.376;-10.782;2023-04-25T09:03:34;13.63;;;8.23;;
56321;SDS011;42227;6.376;-10.782;2023-04-25T09:06:03;19.02;;;8.52;;
56321;SDS011;42227;6.376;-10.782;2023-04-25T09:08:32;11.70;;;7.28;;
56321;SDS011;42227;6.376;-10.782;2023-04-25T09:11:01;11.00;;;6.28;;
56321;SDS011;42227;6.376;-10.782;2023-04-25T09:13:29;11.65;;;6.65;;
56321;SDS011;42227;6.376;-10.782;2023-04-25T09:16:18;10.07;;;5.95;;
56321;SDS011;42227;6.376;-10.782;2023-04-25T09:18:59;13.02;;;7.00;;
56321;SDS011;42227;6.376;-10.782;2023-04-25T09:21:30;9.35;;;6.07;;
56321;SDS011;42227;6.376;-10.782;2023-04-25T09:24:03;11.85;;;7.25;;
56321;SDS011;42227;6.376;-10.782;2023-04-25T09:29:05;11.20;;;8.02;;
56321;SDS011;42227;6.376;-10.782;2023-04-25T09:31:39;12.35;;;6.28;;
56321;SDS011;42227;6.376;-10.782;2023-04-25T09:34:09;12.50;;;7.68;;
56321;SDS011;42227;6.376;-10.782;2023-04-25T09:36:43;14.02;;;6.45;;
56321;SDS011;42227;6.376;-10.782;2023-04-25T09:39:46;24.83;;;6.97;;
56321;SDS011;42227;6.376;-10.782;2023-04-25T09:42:16;12.18;;;7.57;;
56321;SDS011;42227;6.376;-10.782;2023-04-25T09:44:45;11.60;;;6.15;;
56321;SDS011;42227;6.376;-10.782;2023-04-25T09:47:14;11.20;;;6.30;;
56321;SDS011;42227;6.376;-10.782;2023-04-25T09:49:44;10.82;;;7.10;;
56321;SDS011;42227;6.376;-10.782;2023-04-25T09:52:17;13.90;;;5.78;;
56321;SDS011;42227;6.376;-10.782;2023-04-25T09:55:13;22.67;;;9.65;;
56321;SDS011;42227;6.376;-10.782;2023-04-25T09:57:43;10.80;;;5.63;;
56321;SDS011;42227;6.376;-10.782;2023-04-25T10:00:16;13.13;;;6.57;;
56321;SDS011;42227;6.376;-10.782;2023-04-25T10:02:45;9.45;;;4.72;;
56321;SDS011;42227;6.376;-10.782;2023-04-25T10:05:34;7.25;;;4.45;;
56321;SDS011;42227;6.376;-10.782;2023-04-25T10:08:04;5.43;;;3.88;;
56321;SDS011;42227;6.376;-10.782;2023-04-25T10:10:34;6.45;;;4.68;;
56321;SDS011;42227;6.376;-10.782;2023-04-25T10:13:03;11.70;;;4.72;;
56321;SDS011;42227;6.376;-10.782;2023-04-25T10:15:34;8.15;;;4.25;;
56321;SDS011;42227;6.376;-10.782;2023-04-25T10:18:06;5.43;;;3.17;;
56321;SDS011;42227;6.376;-10.782;2023-04-25T10:20:37;8.10;;;3.97;;
56321;SDS011;42227;6.376;-10.782;2023-04-25T10:23:12;8.63;;;5.03;;
56321;SDS011;42227;6.376;-10.782;2023-04-25T10:25:41;10.32;;;6.22;;
56321;SDS011;42227;6.376;-10.782;2023-04-25T10:28:10;10.48;;;5.57;;
56321;SDS011;42227;6.376;-10.782;2023-04-25T10:30:56;9.40;;;5.75;;
56321;SDS011;42227;6.376;-10.782;2023-04-25T10:36:14;7.07;;;4.20;;
56321;SDS011;42227;6.376;-10.782;2023-04-25T10:38:47;7.25;;;5.47;;
56321;SDS011;42227;6.376;-10.782;2023-04-25T10:41:17;5.45;;;4.07;;
56321;SDS011;42227;6.376;-10.782;2023-04-25T10:43:47;9.20;;;4.50;;
56321;SDS011;42227;6.376;-10.782;2023-04-25T10:46:26;9.57;;;4.88;;
56321;SDS011;42227;6.376;-10.782;2023-04-25T10:48:59;8.98;;;4.80;;
56321;SDS011;42227;6.376;-10.782;2023-04-25T10:51:29;9.75;;;4.95;;
56321;SDS011;42227;6.376;-10.782;2023-04-25T10:54:17;9.77;;;5.60;;
56321;SDS011;42227;6.376;-10.782;2023-04-25T10:56:45;8.27;;;4.65;;
56321;SDS011;42227;6.376;-10.782;2023-04-25T10:59:18;6.28;;;3.90;;
56321;SDS011;42227;6.376;-10.782;2023-04-25T11:01:48;9.50;;;4.85;;
56321;SDS011;42227;6.376;-10.782;2023-04-25T11:04:37;9.05;;;5.72;;
56321;SDS011;42227;6.376;-10.782;2023-04-25T11:10:18;9.43;;;5.22;;
56321;SDS011;42227;6.376;-10.782;2023-04-25T11:12:47;13.15;;;5.30;;
56321;SDS011;42227;6.376;-10.782;2023-04-25T11:15:15;7.85;;;3.50;;
56321;SDS011;42227;6.376;-10.782;2023-04-25T11:17:43;8.93;;;5.68;;
56321;SDS011;42227;6.376;-10.782;2023-04-25T11:20:12;6.50;;;3.85;;
56321;SDS011;42227;6.376;-10.782;2023-04-25T11:22:41;16.75;;;6.72;;
56321;SDS011;42227;6.376;-10.782;2023-04-25T11:25:11;5.72;;;4.60;;
56321;SDS011;42227;6.376;-10.782;2023-04-25T11:27:52;6.47;;;3.50;;
56321;SDS011;42227;6.376;-10.782;2023-04-25T11:32:53;29.95;;;5.13;;
56321;SDS011;42227;6.376;-10.782;2023-04-25T11:35:21;15.35;;;4.80;;
56321;SDS011;42227;6.376;-10.782;2023-04-25T11:37:50;10.45;;;3.70;;
56321;SDS011;42227;6.376;-10.782;2023-04-25T11:40:18;9.55;;;3.47;;
56321;SDS011;42227;6.376;-10.782;2023-04-25T11:42:47;8.85;;;4.57;;
56321;SDS011;42227;6.376;-10.782;2023-04-25T11:45:16;7.82;;;4.03;;
56321;SDS011;42227;6.376;-10.782;2023-04-25T11:47:44;10.25;;;3.38;;
56321;SDS011;42227;6.376;-10.782;2023-04-25T11:50:12;6.60;;;2.90;;
56321;SDS011;42227;6.376;-10.782;2023-04-25T11:52:44;6.10;;;3.15;;
56321;SDS011;42227;6.376;-10.782;2023-04-25T11:55:14;7.85;;;4.05;;
56321;SDS011;42227;6.376;-10.782;2023-04-25T11:57:44;5.30;;;2.55;;
56321;SDS011;42227;6.376;-10.782;2023-04-25T12:00:18;7.67;;;2.50;;
56321;SDS011;42227;6.376;-10.782;2023-04-25T12:02:54;11.57;;;3.33;;
56321;SDS011;42227;6.376;-10.782;2023-04-25T12:05:24;5.18;;;3.47;;
56321;SDS011;42227;6.376;-10.782;2023-04-25T12:08:09;12.85;;;5.38;;
56321;SDS011;42227;6.376;-10.782;2023-04-25T12:15:51;8.60;;;4.03;;
56321;SDS011;42227;6.376;-10.782;2023-04-25T12:18:24;12.83;;;3.90;;
56321;SDS011;42227;6.376;-10.782;2023-04-25T12:20:54;16.48;;;3.75;;
56321;SDS011;42227;6.376;-10.782;2023-04-25T12:23:26;12.18;;;4.18;;
56321;SDS011;42227;6.376;-10.782;2023-04-25T12:25:55;10.38;;;5.93;;
56321;SDS011;42227;6.376;-10.782;2023-04-25T12:28:24;13.98;;;4.85;;
56321;SDS011;42227;6.376;-10.782;2023-04-25T12:33:31;19.95;;;6.18;;
56321;SDS011;42227;6.376;-10.782;2023-04-25T12:36:01;8.38;;;5.25;;
56321;SDS011;42227;6.376;-10.782;2023-04-25T12:41:03;21.35;;;5.90;;
56321;SDS011;42227;6.376;-10.782;2023-04-25T12:43:32;11.30;;;7.10;;
56321;SDS011;42227;6.376;-10.782;2023-04-25T12:46:00;11.57;;;5.63;;
56321;SDS011;42227;6.376;-10.782;2023-04-25T12:48:28;14.80;;;5.65;;
56321;SDS011;42227;6.376;-10.782;2023-04-25T12:50:57;13.45;;;6.55;;
56321;SDS011;42227;6.376;-10.782;2023-04-25T12:53:25;11.98;;;5.68;;
56321;SDS011;42227;6.376;-10.782;2023-04-25T12:55:54;10.55;;;5.97;;
56321;SDS011;42227;6.376;-10.782;2023-04-25T12:58:22;14.20;;;7.18;;
56321;SDS011;42227;6.376;-10.782;2023-04-25T13:00:50;12.48;;;6.20;;
56321;SDS011;42227;6.376;-10.782;2023-04-25T13:03:19;4.60;;;3.13;;
56321;SDS011;42227;6.376;-10.782;2023-04-25T13:05:47;21.50;;;6.15;;
56321;SDS011;42227;6.376;-10.782;2023-04-25T13:08:16;9.25;;;5.72;;
56321;SDS011;42227;6.376;-10.782;2023-04-25T13:10:44;18.27;;;10.65;;
56321;SDS011;42227;6.376;-10.782;2023-04-25T13:13:12;36.65;;;22.83;;
56321;SDS011;42227;6.376;-10.782;2023-04-25T13:15:40;18.55;;;7.93;;
56321;SDS011;42227;6.376;-10.782;2023-04-25T13:18:09;9.57;;;4.70;;
56321;SDS011;42227;6.376;-10.782;2023-04-25T13:20:37;11.68;;;6.63;;
56321;SDS011;42227;6.376;-10.782;2023-04-25T13:23:05;18.30;;;7.53;;
56321;SDS011;42227;6.376;-10.782;2023-04-25T13:25:34;13.15;;;9.20;;
56321;SDS011;42227;6.376;-10.782;2023-04-25T13:28:02;15.90;;;8.45;;
56321;SDS011;42227;6.376;-10.782;2023-04-25T13:30:31;5.72;;;3.80;;
56321;SDS011;42227;6.376;-10.782;2023-04-25T13:32:59;8.52;;;4.35;;
56321;SDS011;42227;6.376;-10.782;2023-04-25T13:35:28;10.20;;;4.13;;
56321;SDS011;42227;6.376;-10.782;2023-04-25T13:37:59;10.35;;;4.75;;
56321;SDS011;42227;6.376;-10.782;2023-04-25T13:40:27;16.85;;;6.55;;
56321;SDS011;42227;6.376;-10.782;2023-04-25T13:42:56;10.40;;;4.43;;
56321;SDS011;42227;6.376;-10.782;2023-04-25T13:45:24;12.38;;;5.75;;
56321;SDS011;42227;6.376;-10.782;2023-04-25T13:47:53;19.98;;;5.38;;
56321;SDS011;42227;6.376;-10.782;2023-04-25T13:50:21;7.35;;;2.88;;
56321;SDS011;42227;6.376;-10.782;2023-04-25T13:52:50;6.45;;;4.07;;
56321;SDS011;42227;6.376;-10.782;2023-04-25T13:55:18;10.65;;;2.85;;
56321;SDS011;42227;6.376;-10.782;2023-04-25T13:57:47;4.75;;;2.90;;
56321;SDS011;42227;6.376;-10.782;2023-04-25T14:00:15;9.70;;;5.40;;
56321;SDS011;42227;6.376;-10.782;2023-04-25T14:02:44;7.88;;;3.47;;
56321;SDS011;42227;6.376;-10.782;2023-04-25T14:07:44;6.15;;;3.85;;
56321;SDS011;42227;6.376;-10.782;2023-04-25T14:10:13;11.57;;;5.22;;
56321;SDS011;42227;6.376;-10.782;2023-04-25T14:12:41;13.57;;;5.82;;
56321;SDS011;42227;6.376;-10.782;2023-04-25T14:15:09;4.18;;;2.80;;
56321;SDS011;42227;6.376;-10.782;2023-04-25T14:17:38;13.57;;;3.35;;
56321;SDS011;42227;6.376;-10.782;2023-04-25T14:20:08;7.30;;;4.70;;
56321;SDS011;42227;6.376;-10.782;2023-04-25T14:22:36;8.52;;;4.22;;
56321;SDS011;42227;6.376;-10.782;2023-04-25T14:25:05;13.73;;;7.50;;
56321;SDS011;42227;6.376;-10.782;2023-04-25T14:27:33;22.15;;;8.82;;
56321;SDS011;42227;6.376;-10.782;2023-04-25T14:30:01;10.75;;;4.55;;
56321;SDS011;42227;6.376;-10.782;2023-04-25T14:32:30;17.77;;;7.35;;
56321;SDS011;42227;6.376;-10.782;2023-04-25T14:34:58;6.25;;;4.18;;
56321;SDS011;42227;6.376;-10.782;2023-04-25T14:37:27;18.75;;;6.38;;
56321;SDS011;42227;6.376;-10.782;2023-04-25T14:39:55;11.43;;;6.07;;
56321;SDS011;42227;6.376;-10.782;2023-04-25T14:42:23;12.20;;;5.15;;
56321;SDS011;42227;6.376;-10.782;2023-04-25T14:44:51;17.67;;;10.93;;
56321;SDS011;42227;6.376;-10.782;2023-04-25T14:47:20;20.13;;;8.15;;
56321;SDS011;42227;6.376;-10.782;2023-04-25T14:49:48;12.60;;;3.80;;
56321;SDS011;42227;6.376;-10.782;2023-04-25T14:52:16;15.13;;;3.25;;
56321;SDS011;42227;6.376;-10.782;2023-04-25T14:54:44;14.63;;;7.30;;
56321;SDS011;42227;6.376;-10.782;2023-04-25T14:57:13;11.93;;;6.72;;
56321;SDS011;42227;6.376;-10.782;2023-04-25T14:59:42;11.20;;;5.65;;
56321;SDS011;42227;6.376;-10.782;2023-04-25T15:02:10;22.27;;;10.45;;
56321;SDS011;42227;6.376;-10.782;2023-04-25T15:04:40;19.58;;;9.50;;
56321;SDS011;42227;6.376;-10.782;2023-04-25T15:07:08;6.22;;;3.97;;
56321;SDS011;42227;6.376;-10.782;2023-04-25T15:09:36;15.50;;;4.95;;
56321;SDS011;42227;6.376;-10.782;2023-04-25T15:12:05;12.05;;;3.40;;
56321;SDS011;42227;6.376;-10.782;2023-04-25T15:14:33;23.20;;;8.65;;